Time;durP1;ratioP1;P1;durP2;ratioP2;P2;SDS_P1;SDS_P2;PMS_P1;PMS_P2;Temp;Humidity;BMP_temperature;BMP_pressure;BME280_temperature;BME280_humidity;BME280_pressure;Samples;Min_cycle;Max_cycle;Signal;HPM_P1;HPM_P2
2023/04/07 14:22:15;;;;;;;1.80;0.35;;;;;;;16.53;33.20;100999.31;4959382;29;20146;-96
2023/04/07 14:24:44;;;;;;;3.15;0.30;;;;;;;16.26;35.64;101005.59;4946297;29;20062;-96
2023/04/07 14:27:33;;;;;;;1.77;0.30;;;;;;;16.27;37.50;100991.66;4942158;29;20071;-96
2023/04/07 14:30:04;;;;;;;2.03;0.98;;;;;;;16.31;37.46;100997.44;4924377;29;20047;-96
2023/04/07 14:32:33;;;;;;;1.00;0.30;;;;;;;16.06;35.25;100991.41;4925784;29;20055;-96
2023/04/07 14:35:01;;;;;;;2.33;0.30;;;;;;;15.91;37.72;100997.72;4941361;29;20039;-96
2023/04/07 14:37:30;;;;;;;2.13;0.20;;;;;;;15.97;37.77;100992.06;4944475;29;20042;-96
2023/04/07 14:40:14;;;;;;;3.40;1.08;;;;;;;15.96;35.47;100985.19;4941951;29;20043;-96
2023/04/07 14:42:42;;;;;;;1.83;0.45;;;;;;;15.51;35.96;101005.66;4941502;29;20509;-96
2023/04/07 14:45:17;;;;;;;2.10;0.38;;;;;;;15.44;36.27;100991.44;4939446;29;20035;-96
2023/04/07 14:48:04;;;;;;;2.13;0.30;;;;;;;15.40;37.39;101002.03;4923248;29;20027;-96
2023/04/07 14:50:33;;;;;;;3.60;0.60;;;;;;;15.15;38.46;100989.88;4939032;29;20486;-96
2023/04/07 14:53:05;;;;;;;1.90;0.40;;;;;;;14.76;39.06;100985.59;4939343;29;20023;-96
2023/04/07 14:55:31;;;;;;;3.47;0.38;;;;;;;14.90;38.22;100988.13;4923083;29;20405;-96
2023/04/07 14:59:22;;;;;;;;;;;;;;;;;;;;;
2023/04/07 15:01:37;;;;;;;2.97;0.60;;;;;;;15.21;41.11;100993.81;4934461;29;20055;-96
2023/04/07 15:04:08;;;;;;;2.53;0.40;;;;;;;15.34;42.26;100994.66;4925181;29;20175;-96
2023/04/07 15:06:47;;;;;;;2.75;0.55;;;;;;;15.36;42.22;100984.13;4940988;29;20043;-96
2023/04/07 15:09:28;;;;;;;3.63;0.70;;;;;;;15.33;42.23;100974.78;4926242;29;20031;-96
2023/04/07 15:11:59;;;;;;;1.73;0.30;;;;;;;15.18;40.45;100996.66;4925837;29;20034;-96
2023/04/07 15:15:10;;;;;;;4.03;0.50;;;;;;;14.91;42.16;100984.56;4924583;29;20039;-96
2023/04/07 15:17:38;;;;;;;2.28;0.38;;;;;;;14.91;39.33;100981.13;4941343;29;20032;-96
2023/04/07 15:20:17;;;;;;;2.72;0.30;;;;;;;14.92;40.09;100983.66;4941189;29;20055;-96
2023/04/07 15:22:48;;;;;;;1.70;0.30;;;;;;;14.73;39.33;100972.81;4917249;29;20036;-96
2023/04/07 15:25:41;;;;;;;0.90;0.40;;;;;;;14.95;39.79;100972.22;4924305;29;20043;-96
2023/04/07 15:28:12;;;;;;;0.95;0.22;;;;;;;15.05;39.80;100975.03;4927520;29;20035;-96
2023/04/07 15:31:21;;;;;;;3.17;0.50;;;;;;;14.98;42.67;100969.41;4928867;29;20526;-96
2023/04/07 15:34:13;;;;;;;1.02;0.43;;;;;;;15.07;40.44;100973.13;4926364;29;20034;-96
2023/04/07 15:36:44;;;;;;;1.48;0.40;;;;;;;15.17;43.04;100989.78;4904649;29;20051;-96
2023/04/07 15:39:13;;;;;;;1.45;0.30;;;;;;;15.09;39.71;100974.69;4885352;29;20099;-96
2023/04/07 15:41:47;;;;;;;4.22;0.40;;;;;;;14.83;38.91;100989.44;4885461;29;20431;-96
2023/04/07 15:44:38;;;;;;;3.80;0.88;;;;;;;14.65;39.76;100964.69;4885270;29;20032;-96
2023/04/07 15:47:16;;;;;;;1.98;0.60;;;;;;;14.83;39.12;100973.03;4906327;29;20076;-96
2023/04/07 15:50:30;;;;;;;;;;;;;;;;;;;;;
2023/04/07 15:55:56;;;;;;;2.90;0.65;;;;;;;14.99;40.00;100990.06;4898500;29;20044;-96
2023/04/07 15:58:30;;;;;;;2.30;0.40;;;;;;;14.92;39.74;100973.25;4885643;29;20063;-96
2023/04/07 16:00:58;;;;;;;2.25;1.08;;;;;;;14.77;39.23;100971.66;4867534;29;20041;-96
2023/04/07 16:04:14;;;;;;;2.30;0.65;;;;;;;14.81;40.92;100973.13;4870077;29;20051;-96
2023/04/07 16:07:12;;;;;;;1.35;0.40;;;;;;;14.77;42.42;100974.25;4799222;29;20052;-96
2023/04/07 16:09:43;;;;;;;1.25;0.50;;;;;;;14.87;39.68;100967.50;4813617;29;20045;-96
2023/04/07 16:12:36;;;;;;;1.67;0.20;;;;;;;14.76;38.89;100970.81;4887493;29;20044;-96
2023/04/07 16:15:14;;;;;;;3.03;0.60;;;;;;;14.64;40.00;100969.03;4906051;29;20028;-96
2023/04/07 16:17:57;;;;;;;5.03;0.40;;;;;;;14.85;38.86;100982.38;4905451;29;20028;-96
2023/04/07 16:20:48;;;;;;;4.28;2.30;;;;;;;14.84;39.44;100980.72;4905169;29;20042;-96
2023/04/07 16:24:06;;;;;;;3.33;0.82;;;;;;;14.58;38.66;100971.19;4905292;29;20024;-96
2023/04/07 16:26:49;;;;;;;1.98;0.57;;;;;;;14.46;40.31;100990.97;4904710;29;20048;-96
2023/04/07 16:29:40;;;;;;;7.30;0.77;;;;;;;14.11;40.48;100971.56;4904584;29;20043;-96
2023/04/07 16:35:36;;;;;;;2.50;0.20;;;;;;;14.12;40.19;100973.22;4893463;29;20071;-96
2023/04/07 16:38:18;;;;;;;3.30;0.70;;;;;;;14.07;39.31;100977.88;4918656;29;20028;-96
2023/04/07 16:41:20;;;;;;;4.43;0.50;;;;;;;13.50;41.40;100980.56;4905579;29;20029;-96
2023/04/07 16:44:15;;;;;;;3.00;0.47;;;;;;;13.60;41.93;100993.81;4905187;29;20039;-96
2023/04/07 16:46:40;;;;;;;1.42;0.47;;;;;;;13.66;41.67;100991.69;4904248;29;20031;-96
2023/04/07 16:49:39;;;;;;;2.40;0.50;;;;;;;13.73;41.15;100999.94;4920086;29;20071;-96
2023/04/07 16:52:39;;;;;;;3.00;0.47;;;;;;;13.69;40.91;100996.66;4903836;29;20063;-96
2023/04/07 16:55:20;;;;;;;1.92;0.40;;;;;;;13.52;41.47;100990.88;4903608;29;20042;-96
2023/04/07 16:57:54;;;;;;;4.38;0.50;;;;;;;13.46;39.86;100989.44;4902836;29;20423;-96
2023/04/07 17:00:22;;;;;;;0.88;0.22;;;;;;;13.49;40.55;101000.50;4902915;29;20119;-96
2023/04/07 17:02:51;;;;;;;0.88;0.30;;;;;;;13.33;41.27;100991.13;4904886;29;20394;-95
2023/04/07 17:05:27;;;;;;;1.88;0.43;;;;;;;13.30;41.99;100994.75;4906050;29;20028;-96
2023/04/07 17:08:11;;;;;;;1.20;0.15;;;;;;;13.25;40.15;100988.97;4905393;29;20024;-96
2023/04/07 17:10:56;;;;;;;2.47;0.40;;;;;;;13.15;41.35;100991.28;4905912;29;20036;-96
2023/04/07 17:17:02;;;;;;;0.38;0.20;;;;;;;13.03;42.00;101013.56;4896207;29;20064;-96
2023/04/07 17:19:55;;;;;;;;;;;;;;;;;;;;;
2023/04/07 17:22:27;;;;;;;0.95;0.30;;;;;;;12.77;43.03;101006.47;4906681;29;20115;-96
2023/04/07 17:24:57;;;;;;;2.25;0.40;;;;;;;12.67;44.88;101007.94;4891840;29;20132;-96
2023/04/07 17:27:49;;;;;;;0.57;0.20;;;;;;;12.66;45.28;101016.63;4930206;29;20039;-96
2023/04/07 17:30:37;;;;;;;2.15;0.40;;;;;;;12.56;44.03;101014.56;4909566;29;20112;-96
2023/04/07 17:33:54;;;;;;;0.82;0.40;;;;;;;12.41;45.67;101003.31;4884538;29;20035;-96
2023/04/07 17:39:45;;;;;;;3.33;0.50;;;;;;;12.18;42.80;101004.56;4895119;29;20064;-96
2023/04/07 17:45:38;;;;;;;2.63;0.47;;;;;;;12.17;45.44;101022.78;4916589;29;20581;-96
2023/04/07 17:48:33;;;;;;;1.45;0.30;;;;;;;12.16;46.78;101027.09;4927736;29;20040;-96
2023/04/07 17:51:06;;;;;;;0.68;0.30;;;;;;;12.03;45.00;101014.94;4926899;29;20072;-96
2023/04/07 17:57:13;;;;;;;1.63;0.40;;;;;;;11.84;45.39;101008.13;4928684;29;20134;-96
2023/04/07 18:00:12;;;;;;;3.25;0.38;;;;;;;11.98;43.64;101033.28;4897303;29;20048;-96
2023/04/07 18:02:52;;;;;;;2.58;0.30;;;;;;;11.75;46.07;101031.88;4911997;29;20090;-96
2023/04/07 18:05:41;;;;;;;2.03;0.30;;;;;;;11.46;48.85;101023.06;4912166;29;20037;-96
2023/04/07 18:08:13;;;;;;;0.60;0.35;;;;;;;11.27;50.13;101026.59;4911673;29;20044;-96
2023/04/07 18:10:41;;;;;;;;;;;;;;;11.21;51.13;101046.75;4909459;29;20116;-96
2023/04/07 18:13:08;;;;;;;0.80;0.20;;;;;;;11.01;52.11;101033.06;4912494;29;19915;-96
2023/04/07 18:16:01;;;;;;;1.15;0.45;;;;;;;10.82;51.83;101033.13;4925871;29;20036;-96
2023/04/07 18:19:05;;;;;;;1.10;0.30;;;;;;;10.63;52.46;101035.81;4909421;29;20126;-96
2023/04/07 18:21:40;;;;;;;1.73;0.40;;;;;;;10.54;54.39;101056.06;4928801;29;20080;-96
2023/04/07 18:24:31;;;;;;;1.70;0.25;;;;;;;10.37;55.70;101054.25;4913818;29;20130;-96
2023/04/07 18:27:07;;;;;;;0.50;0.20;;;;;;;10.07;55.93;101046.97;4929739;23;20055;-96
2023/04/07 18:29:34;;;;;;;5.13;0.45;;;;;;;9.91;57.44;101051.16;4907517;29;20032;-96
2023/04/07 18:32:15;;;;;;;;;;;;;;;;;;;;;
2023/04/07 18:34:52;;;;;;;3.33;0.35;;;;;;;9.72;58.13;101064.03;4925550;29;20087;-96
2023/04/07 18:37:23;;;;;;;2.15;0.47;;;;;;;9.53;58.15;101057.09;4918904;29;20123;-96
2023/04/07 18:46:01;;;;;;;0.77;0.28;;;;;;;9.04;60.49;101063.47;4907434;29;20048;-96
2023/04/07 18:48:37;;;;;;;2.13;0.40;;;;;;;9.02;59.95;101073.00;4888833;29;20119;-96
2023/04/07 18:51:09;;;;;;;1.23;0.35;;;;;;;8.87;60.44;101070.13;4889583;29;20088;-96
2023/04/07 18:53:45;;;;;;;1.08;0.43;;;;;;;8.72;61.18;101073.34;4889641;29;20490;-96
2023/04/07 18:56:16;;;;;;;2.20;0.52;;;;;;;8.65;62.07;101079.63;4889583;29;20036;-96
2023/04/07 18:58:50;;;;;;;2.17;0.50;;;;;;;8.59;62.38;101088.41;4905405;29;20017;-96
2023/04/07 19:01:19;;;;;;;1.65;0.40;;;;;;;8.71;59.24;101092.25;4890350;29;20036;-96
2023/04/07 19:03:44;;;;;;;1.88;0.45;;;;;;;8.62;57.89;101087.47;4888293;29;20024;-96
2023/04/07 19:06:14;;;;;;;1.35;0.57;;;;;;;8.49;58.65;101084.53;4888560;29;20681;-96
2023/04/07 19:08:42;;;;;;;2.00;0.63;;;;;;;8.39;58.79;101076.28;4888007;29;20473;-96
2023/04/07 19:11:11;;;;;;;2.20;0.55;;;;;;;8.31;59.66;101080.88;4888305;29;20084;-96
2023/04/07 19:13:45;;;;;;;3.58;0.60;;;;;;;8.25;59.01;101084.53;4889630;29;20028;-96
2023/04/07 19:16:16;;;;;;;2.45;0.63;;;;;;;8.31;58.30;101097.13;4888539;29;20048;-96
2023/04/07 19:18:50;;;;;;;2.92;0.60;;;;;;;8.37;56.83;101088.38;4889905;29;20036;-96
2023/04/07 19:21:27;;;;;;;1.90;0.50;;;;;;;8.37;57.40;101106.38;4888444;29;20391;-96
2023/04/07 19:23:55;;;;;;;1.13;0.40;;;;;;;8.29;57.08;101105.81;4892399;29;20115;-96
2023/04/07 19:26:32;;;;;;;1.92;0.52;;;;;;;8.32;56.83;101105.72;4891193;29;20041;-96
2023/04/07 19:29:12;;;;;;;2.30;0.75;;;;;;;8.15;57.46;101103.75;4888967;29;20043;-96
2023/04/07 19:31:58;;;;;;;3.10;0.45;;;;;;;8.20;57.33;101116.47;4887420;29;20040;-96
2023/04/07 19:34:26;;;;;;;1.85;0.40;;;;;;;8.28;57.10;101124.72;4886278;29;20033;-96
2023/04/07 19:36:57;;;;;;;1.33;0.40;;;;;;;8.22;57.37;101120.66;4887160;29;20072;-96
2023/04/07 19:39:24;;;;;;;0.70;0.40;;;;;;;8.34;55.59;101117.63;4887277;29;20120;-96
2023/04/07 19:41:54;;;;;;;0.82;0.30;;;;;;;8.22;56.41;101115.50;4887369;29;20031;-96
2023/04/07 19:44:30;;;;;;;1.47;0.30;;;;;;;8.22;56.90;101124.94;4887039;29;20033;-96
2023/04/07 19:46:59;;;;;;;1.48;0.30;;;;;;;8.18;56.12;101115.66;4918679;29;20610;-96
2023/04/07 19:49:30;;;;;;;1.75;0.68;;;;;;;8.23;56.35;101129.19;4886560;29;20088;-96
2023/04/07 19:51:59;;;;;;;2.78;0.40;;;;;;;8.19;56.98;101125.03;4888461;29;20024;-96
2023/04/07 19:54:36;;;;;;;1.83;0.60;;;;;;;8.08;56.65;101123.72;4887292;29;20111;-96
2023/04/07 19:57:15;;;;;;;2.30;0.57;;;;;;;8.20;55.92;101132.72;4890164;29;20060;-96
2023/04/07 19:59:43;;;;;;;1.67;0.40;;;;;;;8.25;55.41;101141.09;4887359;29;20127;-96
2023/04/07 20:02:27;;;;;;;1.50;0.47;;;;;;;8.10;54.79;101123.66;4890515;29;20025;-96
2023/04/07 20:04:56;;;;;;;2.45;0.45;;;;;;;8.07;55.95;101140.03;4886425;29;20089;-96
2023/04/07 20:07:28;;;;;;;1.60;0.47;;;;;;;7.96;57.32;101124.16;4886030;29;20123;-96
2023/04/07 20:10:02;;;;;;;1.40;0.45;;;;;;;7.93;56.10;101134.56;4888449;29;20036;-96
2023/04/07 20:12:33;;;;;;;2.80;0.68;;;;;;;7.85;56.02;101131.38;4886843;29;20032;-96
2023/04/07 20:14:59;;;;;;;2.33;0.68;;;;;;;7.79;58.89;101141.91;4886973;29;20024;-96
2023/04/07 20:17:40;;;;;;;2.13;0.60;;;;;;;7.70;57.42;101141.31;4903375;29;20080;-96
2023/04/07 20:20:08;;;;;;;1.70;1.00;;;;;;;7.68;57.22;101137.09;4887478;29;20029;-96
2023/04/07 20:22:44;;;;;;;1.60;0.40;;;;;;;7.72;56.87;101149.81;4888277;29;20040;-96
2023/04/07 20:25:15;;;;;;;5.15;1.30;;;;;;;7.72;56.17;101144.66;4887925;29;20443;-96
2023/04/07 20:27:48;;;;;;;2.08;0.63;;;;;;;7.69;56.95;101142.22;4887935;29;20066;-96
2023/04/07 20:30:20;;;;;;;5.85;0.80;;;;;;;7.80;56.07;101149.53;4887445;29;20107;-96
2023/04/07 20:32:54;;;;;;;2.08;0.50;;;;;;;7.71;55.59;101135.28;4888241;29;20036;-96
2023/04/07 20:38:17;;;;;;;0.90;0.60;;;;;;;7.78;56.07;101150.47;4905343;29;20047;-96
2023/04/07 20:40:53;;;;;;;1.95;0.70;;;;;;;7.78;58.10;101153.91;4888728;29;20028;-96
2023/04/07 20:43:26;;;;;;;3.38;0.50;;;;;;;7.83;55.81;101148.63;4888890;29;20025;-96
2023/04/07 20:45:58;;;;;;;1.67;0.55;;;;;;;7.81;56.05;101146.09;4902269;29;20055;-96
2023/04/07 20:48:28;;;;;;;2.30;0.50;;;;;;;7.83;57.65;101164.88;4886040;29;20028;-96
2023/04/07 20:51:11;;;;;;;2.45;0.60;;;;;;;7.69;58.82;101157.63;4884550;29;20064;-96
2023/04/07 20:53:44;;;;;;;1.00;0.40;;;;;;;7.82;56.50;101158.03;4887863;29;20044;-96
2023/04/07 20:56:15;;;;;;;1.70;0.50;;;;;;;7.76;56.21;101147.16;4886603;29;20558;-96
2023/04/07 20:58:58;;;;;;;3.25;0.75;;;;;;;7.75;55.01;101155.72;4888412;29;20041;-96
2023/04/07 21:04:28;;;;;;;2.42;0.80;;;;;;;7.69;55.24;101167.91;4905302;29;20072;-96
2023/04/07 21:06:55;;;;;;;1.98;0.63;;;;;;;7.46;58.13;101152.41;4886816;29;20037;-96
2023/04/07 21:09:29;;;;;;;1.40;0.60;;;;;;;7.44;59.12;101167.88;4888498;29;20040;-96
2023/04/07 21:12:00;;;;;;;0.75;0.43;;;;;;;7.08;63.76;101160.47;4889941;29;20048;-96
2023/04/07 21:14:29;;;;;;;1.23;0.50;;;;;;;6.99;64.53;101190.69;4888627;29;20024;-96
2023/04/07 21:17:04;;;;;;;1.73;1.20;;;;;;;6.87;63.59;101176.50;4887357;29;20042;-96
2023/04/07 21:19:39;;;;;;;4.63;2.10;;;;;;;6.72;65.03;101172.69;4888648;29;20498;-96
2023/04/07 21:22:05;;;;;;;7.80;3.53;;;;;;;6.83;67.08;101175.78;4901609;29;20031;-96
2023/04/07 21:24:34;;;;;;;6.57;3.20;;;;;;;6.64;67.76;101165.22;4888232;29;20028;-96
2023/04/07 21:27:00;;;;;;;10.05;4.07;;;;;;;6.47;68.81;101182.00;4884821;29;20048;-96
2023/04/07 21:29:35;;;;;;;8.07;3.30;;;;;;;6.33;70.34;101178.06;4885926;29;20037;-96
2023/04/07 21:32:04;;;;;;;4.20;2.50;;;;;;;6.15;72.35;101181.16;4885227;29;20029;-96
2023/04/07 21:34:29;;;;;;;6.30;2.50;;;;;;;6.00;72.27;101178.13;4884453;29;20479;-96
2023/04/07 21:36:55;;;;;;;4.13;2.47;;;;;;;5.82;72.59;101181.13;4884572;29;20033;-96
2023/04/07 21:39:23;;;;;;;3.92;2.20;;;;;;;5.61;73.22;101171.41;4885360;29;20029;-96
2023/04/07 21:41:56;;;;;;;5.53;2.03;;;;;;;5.56;74.21;101190.31;4884946;29;20033;-96
2023/04/07 21:44:25;;;;;;;2.60;1.75;;;;;;;5.45;74.99;101184.59;4887781;29;20020;-96
2023/04/07 21:46:51;;;;;;;5.65;2.58;;;;;;;5.31;75.46;101176.41;4885846;29;20032;-96
2023/04/07 21:49:24;;;;;;;5.28;2.67;;;;;;;5.38;75.58;101187.34;4888502;29;20033;-96
2023/04/07 21:51:58;;;;;;;4.72;1.88;;;;;;;5.28;75.69;101191.84;4889102;29;20060;-96
2023/04/07 21:54:30;;;;;;;5.35;1.83;;;;;;;5.21;74.75;101195.41;4888344;29;20021;-95
2023/04/07 21:56:58;;;;;;;3.92;1.88;;;;;;;5.06;75.11;101184.66;4888233;29;20030;-95
2023/04/07 21:59:23;;;;;;;2.45;1.45;;;;;;;4.97;75.78;101191.69;4890582;29;20037;-96
2023/04/07 22:01:53;;;;;;;7.40;1.92;;;;;;;4.87;76.81;101191.06;4890628;29;20044;-96
2023/04/07 22:04:20;;;;;;;3.05;1.38;;;;;;;4.69;77.59;101171.84;4889196;29;20036;-96
2023/04/07 22:06:46;;;;;;;2.90;1.13;;;;;;;4.64;78.49;101177.06;4887361;29;20032;-96
2023/04/07 22:09:16;;;;;;;3.85;1.23;;;;;;;4.58;79.36;101179.72;4886737;29;20497;-96
2023/04/07 22:11:42;;;;;;;4.63;1.33;;;;;;;4.49;80.32;101170.53;4886686;29;20131;-96
2023/04/07 22:14:13;;;;;;;3.83;0.93;;;;;;;4.56;81.09;101196.84;4886872;29;20063;-96
2023/04/07 22:16:41;;;;;;;5.18;0.90;;;;;;;4.57;81.91;101197.66;4886808;29;20037;-95
2023/04/07 22:19:09;;;;;;;6.10;1.30;;;;;;;4.51;81.91;101180.72;4887330;29;20044;-96
2023/04/07 22:21:34;;;;;;;2.00;0.90;;;;;;;4.50;81.42;101176.50;4887321;29;20040;-96
2023/04/07 22:24:00;;;;;;;2.88;0.88;;;;;;;4.50;81.25;101176.50;4886720;29;20056;-96
2023/04/07 22:26:26;;;;;;;3.75;1.25;;;;;;;4.53;81.47;101186.66;4886168;29;20039;-96
2023/04/07 22:28:51;;;;;;;1.85;1.00;;;;;;;4.45;81.96;101183.41;4886794;29;20096;-96
2023/04/07 22:31:23;;;;;;;3.88;1.20;;;;;;;4.43;82.47;101190.25;4886858;29;20036;-96
2023/04/07 22:33:51;;;;;;;2.70;0.90;;;;;;;4.41;83.33;101197.94;4887025;29;20029;-96
2023/04/07 22:36:21;;;;;;;2.00;0.80;;;;;;;4.23;84.26;101176.16;4886999;29;20036;-96
2023/04/07 22:38:49;;;;;;;3.67;0.70;;;;;;;4.17;84.82;101178.84;4886603;29;20029;-96
2023/04/07 22:41:15;;;;;;;2.33;0.77;;;;;;;4.09;85.70;101175.56;4885362;29;20024;-96
2023/04/07 22:43:41;;;;;;;2.00;0.70;;;;;;;4.01;86.50;101183.38;4885852;29;20120;-96
2023/04/07 22:46:06;;;;;;;1.90;1.13;;;;;;;4.04;87.39;101200.38;4886121;29;20103;-96
2023/04/07 22:48:35;;;;;;;2.53;0.80;;;;;;;3.97;88.00;101201.34;4901212;29;20036;-96
2023/04/07 22:51:07;;;;;;;1.42;0.70;;;;;;;3.82;88.58;101185.41;4885411;29;20495;-96
2023/04/07 22:53:35;;;;;;;1.42;0.68;;;;;;;3.73;89.04;101179.63;4886527;29;20052;-96
2023/04/07 22:56:04;;;;;;;1.67;0.73;;;;;;;3.70;89.48;101185.63;4889055;29;20043;-96
2023/04/07 22:58:35;;;;;;;1.92;0.68;;;;;;;3.65;90.16;101179.78;4888603;29;20097;-95
2023/04/07 23:01:00;;;;;;;5.70;1.20;;;;;;;3.71;90.74;101205.22;4887036;29;20024;-96
2023/04/07 23:03:32;;;;;;;1.25;0.70;;;;;;;3.62;91.31;101197.69;4885781;29;20029;-96
2023/04/07 23:06:01;;;;;;;2.53;1.02;;;;;;;3.52;91.85;101191.06;4885633;29;20036;-96
2023/04/07 23:08:29;;;;;;;2.50;0.80;;;;;;;3.52;92.02;101194.44;4885160;29;20028;-96
2023/04/07 23:10:58;;;;;;;1.52;0.80;;;;;;;3.48;92.72;101194.53;4885892;29;20032;-96
2023/04/07 23:13:33;;;;;;;2.78;0.95;;;;;;;3.48;93.32;101197.91;4886423;29;20040;-96
2023/04/07 23:16:10;;;;;;;3.05;0.85;;;;;;;3.49;94.26;101209.81;4919749;29;20026;-96
2023/04/07 23:18:38;;;;;;;2.17;0.82;;;;;;;3.39;94.68;101193.81;4886650;29;20483;-96
2023/04/07 23:21:09;;;;;;;2.63;1.00;;;;;;;3.36;95.30;101187.91;4886104;29;20020;-96
2023/04/07 23:23:41;;;;;;;2.08;0.70;;;;;;;3.37;95.13;101185.34;4885984;29;20482;-96
2023/04/07 23:26:07;;;;;;;1.42;0.80;;;;;;;3.36;95.28;101190.44;4886196;29;20104;-96
2023/04/07 23:28:35;;;;;;;2.78;0.90;;;;;;;3.35;95.32;101192.16;4885827;29;20037;-95
2023/04/07 23:31:05;;;;;;;5.18;0.90;;;;;;;3.33;95.75;101193.88;4886341;29;20562;-96
2023/04/07 23:33:34;;;;;;;2.90;0.80;;;;;;;3.30;96.39;101198.22;4885544;29;20009;-96
2023/04/07 23:36:07;;;;;;;2.70;0.80;;;;;;;3.26;96.62;101189.75;4886504;29;20036;-96
2023/04/07 23:38:39;;;;;;;2.13;0.80;;;;;;;3.31;97.25;101222.84;4886769;29;20502;-96
2023/04/07 23:41:05;;;;;;;1.77;0.80;;;;;;;3.21;98.00;101217.03;4885590;29;20029;-96
2023/04/07 23:43:38;;;;;;;2.08;0.80;;;;;;;3.10;98.44;101203.63;4885035;29;20033;-96
2023/04/07 23:46:09;;;;;;;2.58;0.73;;;;;;;3.09;99.09;101207.00;4885471;29;20028;-96
2023/04/07 23:48:38;;;;;;;2.08;0.95;;;;;;;3.15;99.65;101227.34;4885610;29;20044;-96
2023/04/07 23:51:04;;;;;;;1.52;0.77;;;;;;;3.09;100.00;101224.88;4886000;29;20024;-96
2023/04/07 23:53:29;;;;;;;1.67;0.77;;;;;;;2.98;100.00;101208.00;4885994;29;20116;-96
2023/04/07 23:56:06;;;;;;;1.77;0.90;;;;;;;2.96;100.00;101204.63;4886591;29;20024;-96
2023/04/07 23:58:31;;;;;;;5.25;1.13;;;;;;;3.01;100.00;101222.41;4886242;29;20100;-96
